• Join FlightAware (Why Join?)
  • Login
  • US Flag 
09:25AM EST


 

Airport Tracker/Info


-or-


 

Live Flight TrackerFlight Track Log ✈ ASQ5738 ✈ 03-May-2013 ✈ KALB - KIAD

Flight Track Log - Related Links

Times and Time Zones

All times are in EDT time to prevent confusion due to time zone crossing. See the ASQ5738 flight status page for this flight to view local times or setup timezone preferences in your user account.

Time Position Orientation Groundspeed Altitude Reporting Facility
EDT Latitude Longitude Course Direction KTS MPH feet Rate Location/Type
10:14AM 42.7236 -73.8081 197° South 168 193 1,400  Level Boston Center
10:14AM 42.6983 -73.8186 197° South 185 213 2,500 2,580 Climbing Boston Center
10:15AM 42.7042 -73.8583 281° West 224 258 4,200 3,120 Climbing Boston Center
10:15AM 42.7206 -73.8814 314° West 226 260 5,700 3,360 Climbing Boston Center
10:16AM 42.7494 -73.9075 326° Northwest 218 251 7,600 2,760 Climbing Boston Center
10:17AM 42.7986 -73.9625 321° Northwest 246 283 10,100 2,220 Climbing Boston Center
10:18AM 42.8203 -74.0564 287° West 246 283 12,100 1,680 Climbing Boston Center
10:19AM 42.8208 -74.1611 270° West 269 310 13,500 1,620 Climbing Boston Center
10:20AM 42.7347 -74.1983 198° South 244 281 15,400 1,440 Climbing Boston Center
10:21AM 42.6456 -74.1733 168° South 266 306 16,400 1,020 Climbing Boston Center
10:22AM 42.5442 -74.1367 165° South 348 400 17,500 720 Climbing Boston Center
10:23AM 42.4342 -74.1025 167° South 392 451 17,900 720 Climbing Boston Center
10:24AM 42.3219 -74.0658 166° South 411 473 19,000 900 Climbing Boston Center
10:25AM 42.2078 -74.0378 170° South 411 473 20,000 900 Climbing Boston Center
10:26AM 42.0661 -74.0453 182° South 422 486 21,100 900 Climbing Boston Center
10:27AM 41.9450 -74.0533 183° South 432 497 21,900 780 Climbing Boston Center
10:28AM 41.8256 -74.1033 197° South 432 497 22,700 720 Climbing Boston Center
10:31AM 41.5644 -74.2422 202° Southwest 450 518 24,400 660 Climbing New York Center
10:32AM 41.4481 -74.3056 202° Southwest 450 518 25,100 660 Climbing New York Center
10:33AM 41.3294 -74.3711 203° Southwest 450 518 25,800 720 Climbing New York Center
10:34AM 41.1925 -74.4272 197° South 462 532 26,600 720 Climbing New York Center
10:35AM 41.0764 -74.4786 198° South 462 532 27,300 600 Climbing New York Center
10:36AM 41.0033 -74.6094 234° Southwest 428 493 27,900 300 Climbing New York Center
10:37AM 40.9342 -74.7483 237° Southwest 439 505 28,000  Climbing New York Center
10:38AM 40.8628 -74.8867 236° Southwest 452 520 28,000  Level New York Center
10:39AM 40.7911 -75.0250 236° Southwest 463 533 28,000 -300 Level New York Center
10:40AM 40.7192 -75.1683 237° Southwest 469 540 27,500 -840 Descending New York Center
10:41AM 40.6431 -75.3139 235° Southwest 482 555 26,400 -1,200 Descending New York Center
10:42AM 40.5686 -75.4539 235° Southwest 482 555 25,200 -1,320 Descending New York Center
10:43AM 40.4942 -75.5961 235° Southwest 482 555 23,900 -1,740 Descending New York Center
10:44AM 40.4217 -75.7383 236° Southwest 477 549 21,700 -1,980 Descending New York Center
10:45AM 40.3447 -75.8769 234° Southwest 477 549 20,000 -840 Descending New York Center
10:46AM 40.2681 -76.0128 234° Southwest 477 549 20,000 -720 Level New York Center
10:47AM 40.2083 -76.1333 237° Southwest 470 541 18,700 -1,080 Descending New York Center
10:48AM 40.1264 -76.2844 235° Southwest 470 541 17,900 -900 Descending New York Center
10:49AM 40.0683 -76.4075 238° Southwest 458 527 17,000 -1,020 Descending New York Center
10:50AM 40.0008 -76.5539 239° Southwest 444 511 15,900 -660 Descending New York Center
10:52AM 39.8667 -76.8333 238° Southwest 414 476 15,000 -300 Descending Potomac TRACON
10:53AM 39.8167 -76.9500 241° Southwest 405 466 15,000 -540 Level Potomac TRACON
10:54AM 39.7500 -77.0667 233° Southwest 409 471 14,000 -1,800 Descending Potomac TRACON
10:55AM 39.6833 -77.2167 240° Southwest 410 472 11,400 -2,040 Descending Potomac TRACON
10:56AM 39.6333 -77.3167 237° Southwest 373 429 10,000 -1,080 Descending Potomac TRACON
10:57AM 39.5833 -77.4000 232° Southwest 300 345 9,400 -780 Descending Potomac TRACON
10:58AM 39.5333 -77.4500 218° Southwest 292 336 8,600 -960 Descending Potomac TRACON
10:59AM 39.4500 -77.4500 180° South 285 328 7,600 -840 Descending Potomac TRACON
11:00AM 39.3667 -77.4500 180° South 272 313 7,000 -360 Descending Potomac TRACON
11:01AM 39.3000 -77.4500 180° South 276 318 7,000 -900 Level Potomac TRACON
11:02AM 39.2167 -77.4500 180° South 265 305 5,200 -1,440 Descending Potomac TRACON
11:03AM 39.1667 -77.4500 180° South 229 264 4,100 -1,260 Descending Potomac TRACON
11:04AM 39.1000 -77.4500 180° South 224 258 2,800 -1,200 Descending Potomac TRACON
11:05AM 39.0333 -77.4667 191° South 199 229 1,700 -1,020 Descending Potomac TRACON
11:06AM 39.0000 -77.4667 180° South 144 166 800 -900 Descending Potomac TRACON
11:08AM 38.9474 -77.4599 180° South  Level Estimated
11:15AM 38.9474 -77.4599 349° North  Level Estimated
11:16AM 38.9474 -77.4599 349° North  Level Estimated